createdAt,value
2022-07-26T00:00:22.417Z,2.27
2022-07-26T00:02:53.436Z,1.80
2022-07-26T00:05:21.325Z,3.70
2022-07-26T00:07:53.513Z,2.57
2022-07-26T00:10:22.358Z,1.83
2022-07-26T00:12:54.753Z,3.57
2022-07-26T00:15:23.252Z,2.47
2022-07-26T00:17:53.962Z,3.33
2022-07-26T00:20:27.681Z,2.50
2022-07-26T00:23:01.880Z,2.70
2022-07-26T00:25:34.172Z,3.97
2022-07-26T00:28:09.845Z,3.23
2022-07-26T00:30:39.235Z,2.97
2022-07-26T00:33:08.834Z,2.43
2022-07-26T00:35:37.327Z,1.83
2022-07-26T00:38:06.420Z,3.10
2022-07-26T00:40:39.545Z,3.90
2022-07-26T00:43:09.919Z,2.63
2022-07-26T00:45:39.308Z,2.60
2022-07-26T00:48:10.693Z,1.80
2022-07-26T00:50:41.324Z,1.83
2022-07-26T00:53:11.165Z,2.73
2022-07-26T00:55:38.801Z,2.10
2022-07-26T00:58:10.272Z,4.70
2022-07-26T01:03:24.734Z,3.37
2022-07-26T01:06:01.404Z,3.20
2022-07-26T01:08:30.686Z,2.43
2022-07-26T01:11:02.597Z,2.17
2022-07-26T01:13:36.463Z,2.27
2022-07-26T01:16:04.820Z,2.30
2022-07-26T01:18:32.226Z,3.50
2022-07-26T01:21:13.902Z,3.10
2022-07-26T01:23:45.352Z,2.80
2022-07-26T01:26:15.913Z,2.70
2022-07-26T01:28:46.685Z,3.30
2022-07-26T01:31:22.361Z,1.83
2022-07-26T01:33:51.770Z,3.13
2022-07-26T01:36:37.773Z,3.73
2022-07-26T01:39:09.239Z,1.63
2022-07-26T01:41:41.409Z,3.70
2022-07-26T01:44:12.037Z,3.23
2022-07-26T01:46:43.942Z,2.90
2022-07-26T01:49:15.916Z,4.17
2022-07-26T01:51:48.592Z,2.20
2022-07-26T01:54:22.595Z,3.37
2022-07-26T01:56:54.036Z,3.63
2022-07-26T01:59:24.830Z,3.57
2022-07-26T02:01:59.755Z,2.97
2022-07-26T02:04:48.822Z,3.53
2022-07-26T02:07:17.464Z,4.10
2022-07-26T02:09:50.000Z,3.37
2022-07-26T02:12:21.978Z,2.43
2022-07-26T02:14:53.174Z,2.90
2022-07-26T02:17:25.111Z,2.67
2022-07-26T02:19:57.746Z,3.67
2022-07-26T02:22:28.996Z,4.27
2022-07-26T02:25:04.799Z,3.23
2022-07-26T02:27:37.430Z,3.67
2022-07-26T02:30:08.498Z,5.53
2022-07-26T02:32:40.757Z,3.00
2022-07-26T02:35:11.818Z,3.23
2022-07-26T02:37:47.068Z,2.90
2022-07-26T02:40:19.278Z,3.07
2022-07-26T02:42:52.121Z,4.23
2022-07-26T02:45:22.949Z,4.00
2022-07-26T02:50:47.259Z,4.43
2022-07-26T02:53:17.883Z,3.90
2022-07-26T02:55:49.824Z,3.17
2022-07-26T02:58:25.416Z,3.90
2022-07-26T03:00:53.909Z,2.97
2022-07-26T03:03:26.815Z,4.33
2022-07-26T03:05:54.691Z,2.70
2022-07-26T03:08:26.743Z,3.83
2022-07-26T03:10:55.032Z,2.07
2022-07-26T03:13:23.834Z,3.23
2022-07-26T03:15:54.226Z,3.03
2022-07-26T03:18:27.003Z,3.80
2022-07-26T03:20:58.767Z,3.90
2022-07-26T03:23:28.455Z,4.53
2022-07-26T03:25:59.135Z,4.20
2022-07-26T03:28:31.468Z,2.97
2022-07-26T03:31:03.892Z,4.30
2022-07-26T03:33:38.873Z,4.13
2022-07-26T03:36:11.478Z,3.07
2022-07-26T03:38:44.054Z,3.47
2022-07-26T03:41:13.951Z,2.23
2022-07-26T03:43:46.087Z,3.37
2022-07-26T03:46:15.939Z,2.83
2022-07-26T03:48:46.427Z,3.47
2022-07-26T03:51:14.677Z,3.53
2022-07-26T03:53:49.440Z,4.73
2022-07-26T03:56:29.154Z,2.33
2022-07-26T03:59:01.617Z,3.73
2022-07-26T04:01:35.356Z,2.93
2022-07-26T04:04:06.324Z,3.30
2022-07-26T04:06:44.174Z,3.77
2022-07-26T04:09:16.142Z,4.20
2022-07-26T04:11:48.068Z,4.03
2022-07-26T04:14:26.569Z,4.67
2022-07-26T04:16:56.580Z,3.73
2022-07-26T04:19:28.467Z,3.57
2022-07-26T04:21:59.738Z,6.83
2022-07-26T04:24:29.228Z,3.27
2022-07-26T04:26:58.931Z,3.77
2022-07-26T04:29:31.684Z,3.80
2022-07-26T04:32:04.085Z,4.60
2022-07-26T04:37:22.135Z,3.67
2022-07-26T04:39:54.956Z,3.37
2022-07-26T04:42:28.206Z,5.23
2022-07-26T04:44:57.797Z,3.80
2022-07-26T04:47:31.942Z,4.87
2022-07-26T04:50:04.222Z,3.20
2022-07-26T04:52:36.123Z,4.07
2022-07-26T04:55:04.900Z,6.43
2022-07-26T04:57:34.301Z,5.00
2022-07-26T05:00:21.448Z,4.17
2022-07-26T05:02:55.078Z,3.90
2022-07-26T05:05:28.422Z,4.37
2022-07-26T05:08:04.285Z,5.40
2022-07-26T05:10:45.007Z,6.47
2022-07-26T05:13:16.236Z,3.93
2022-07-26T05:15:55.589Z,4.23
2022-07-26T05:18:27.018Z,5.23
2022-07-26T05:20:59.563Z,3.77
2022-07-26T05:23:27.313Z,4.77
2022-07-26T05:25:59.639Z,5.33
2022-07-26T05:28:28.299Z,5.23
2022-07-26T05:30:59.198Z,6.23
2022-07-26T05:33:34.568Z,5.63
2022-07-26T05:36:07.031Z,8.87
2022-07-26T05:38:39.046Z,3.20
2022-07-26T05:41:11.032Z,6.23
2022-07-26T05:43:42.656Z,5.87
2022-07-26T05:46:21.163Z,4.40
2022-07-26T05:48:53.114Z,7.70
2022-07-26T05:51:25.319Z,4.40
2022-07-26T05:53:59.861Z,4.07
2022-07-26T05:56:33.902Z,4.03
2022-07-26T05:59:01.399Z,5.13
2022-07-26T06:01:34.620Z,5.87
2022-07-26T06:04:12.735Z,6.40
2022-07-26T06:06:43.973Z,5.73
2022-07-26T06:09:15.560Z,4.97
2022-07-26T06:11:48.407Z,6.40
2022-07-26T06:14:20.506Z,5.50
2022-07-26T06:16:53.228Z,6.37
2022-07-26T06:19:23.944Z,7.57
2022-07-26T06:21:56.703Z,7.03
2022-07-26T06:24:27.543Z,5.20
2022-07-26T06:27:04.850Z,3.87
2022-07-26T06:29:36.508Z,6.13
2022-07-26T06:32:06.448Z,3.70
2022-07-26T06:34:40.067Z,7.90
2022-07-26T06:37:09.197Z,6.83
2022-07-26T06:39:41.032Z,6.50
2022-07-26T06:42:11.683Z,6.57
2022-07-26T06:44:44.021Z,4.93
2022-07-26T06:47:15.501Z,7.83
2022-07-26T06:49:47.892Z,4.73
2022-07-26T06:52:17.660Z,5.67
2022-07-26T06:54:52.557Z,4.93
2022-07-26T06:57:20.159Z,4.13
2022-07-26T06:59:51.225Z,7.90
2022-07-26T07:02:24.175Z,5.70
2022-07-26T07:04:52.787Z,5.93
2022-07-26T07:10:06.485Z,6.93
2022-07-26T07:12:47.857Z,8.63
2022-07-26T07:15:20.539Z,3.67
2022-07-26T07:17:54.980Z,6.87
2022-07-26T07:20:27.206Z,4.47
2022-07-26T07:22:55.836Z,5.60
2022-07-26T07:25:32.521Z,5.27
2022-07-26T07:28:04.778Z,5.73
2022-07-26T07:30:37.535Z,5.33
2022-07-26T07:33:09.425Z,3.63
2022-07-26T07:35:55.544Z,4.10
2022-07-26T07:38:28.464Z,5.10
2022-07-26T07:41:03.424Z,5.07
2022-07-26T07:43:37.274Z,3.87
2022-07-26T07:46:09.591Z,4.50
2022-07-26T07:48:47.537Z,3.30
2022-07-26T07:51:18.707Z,3.13
2022-07-26T07:53:56.427Z,4.87
2022-07-26T07:56:30.537Z,4.37
2022-07-26T07:59:01.968Z,3.10
2022-07-26T08:01:40.304Z,5.83
2022-07-26T08:04:13.480Z,4.67
2022-07-26T08:06:50.182Z,4.93
2022-07-26T08:09:24.590Z,5.37
2022-07-26T08:12:00.773Z,6.43
2022-07-26T08:14:32.487Z,4.07
2022-07-26T08:17:02.536Z,3.20
2022-07-26T08:19:42.321Z,3.83
2022-07-26T08:22:14.453Z,5.40
2022-07-26T08:24:48.321Z,2.70
2022-07-26T08:27:16.756Z,2.80
2022-07-26T08:29:48.385Z,3.37
2022-07-26T08:32:20.497Z,4.60
2022-07-26T08:34:52.679Z,3.70
2022-07-26T08:37:23.304Z,3.00
2022-07-26T08:39:54.319Z,4.23
2022-07-26T08:42:33.557Z,1.80
2022-07-26T08:45:09.639Z,4.17
2022-07-26T08:47:55.253Z,3.63
2022-07-26T08:50:31.224Z,7.53
2022-07-26T08:53:11.568Z,9.10
2022-07-26T08:56:07.662Z,2.70
2022-07-26T09:01:22.539Z,3.37
2022-07-26T09:03:52.562Z,3.80
2022-07-26T09:06:28.610Z,3.43
2022-07-26T09:09:12.493Z,1.57
2022-07-26T09:11:44.814Z,1.80
2022-07-26T09:14:14.602Z,1.80
2022-07-26T09:16:45.512Z,1.13
2022-07-26T09:19:26.946Z,3.27
2022-07-26T09:21:59.028Z,6.77
2022-07-26T09:24:42.466Z,3.77
2022-07-26T09:27:14.982Z,1.53
2022-07-26T09:30:00.176Z,2.97
2022-07-26T09:32:34.535Z,2.50
2022-07-26T09:35:46.020Z,0.80
2022-07-26T09:38:23.559Z,1.70
2022-07-26T09:40:58.736Z,1.17
2022-07-26T09:43:49.069Z,1.13
2022-07-26T09:46:20.075Z,1.87
2022-07-26T09:54:41.409Z,1.87
2022-07-26T09:57:11.161Z,1.13
2022-07-26T09:59:39.980Z,2.17
2022-07-26T10:02:10.662Z,2.60
2022-07-26T10:04:40.250Z,1.10
2022-07-26T10:07:12.524Z,3.10
2022-07-26T10:09:52.608Z,2.87
2022-07-26T10:12:28.597Z,4.87
2022-07-26T10:15:00.094Z,0.80
2022-07-26T10:17:35.669Z,0.60
2022-07-26T10:20:17.493Z,1.27
2022-07-26T10:22:53.058Z,1.97
2022-07-26T10:25:22.451Z,1.57
2022-07-26T10:27:58.519Z,1.80
2022-07-26T10:30:35.124Z,1.97
2022-07-26T10:33:18.634Z,1.13
2022-07-26T10:35:47.402Z,1.10
2022-07-26T10:41:13.119Z,1.03
2022-07-26T10:43:42.848Z,7.87
2022-07-26T10:46:20.655Z,1.57
2022-07-26T10:52:11.585Z,1.07
2022-07-26T10:55:14.275Z,1.77
2022-07-26T10:57:45.462Z,1.60
2022-07-26T11:00:22.338Z,1.97
2022-07-26T11:03:03.308Z,2.77
2022-07-26T11:05:38.951Z,2.43
2022-07-26T11:11:02.971Z,1.77
2022-07-26T11:13:33.501Z,1.40
2022-07-26T11:16:09.808Z,2.57
2022-07-26T11:18:40.520Z,2.13
2022-07-26T11:21:14.296Z,3.07
2022-07-26T11:23:55.161Z,2.00
2022-07-26T11:26:32.031Z,2.27
2022-07-26T11:29:06.187Z,1.93
2022-07-26T11:31:58.005Z,2.30
2022-07-26T11:34:44.523Z,2.07
2022-07-26T11:37:16.556Z,3.80
2022-07-26T11:39:46.397Z,1.97
2022-07-26T11:42:18.437Z,4.70
2022-07-26T11:44:51.601Z,3.47
2022-07-26T11:47:24.184Z,5.60
2022-07-26T11:52:52.592Z,5.97
2022-07-26T11:55:53.368Z,5.70
2022-07-26T11:58:23.430Z,3.97
2022-07-26T12:00:57.381Z,3.23
2022-07-26T12:03:29.879Z,3.27
2022-07-26T12:06:09.365Z,3.27
2022-07-26T12:08:55.703Z,2.40
2022-07-26T12:11:26.552Z,2.83
2022-07-26T12:14:07.446Z,2.77
2022-07-26T12:16:51.849Z,2.17
2022-07-26T12:19:22.994Z,2.00
2022-07-26T12:21:59.849Z,1.83
2022-07-26T12:24:39.677Z,4.10
2022-07-26T12:27:21.976Z,3.77
2022-07-26T12:30:11.836Z,1.20
2022-07-26T12:32:44.137Z,2.23
2022-07-26T12:35:15.989Z,1.30
2022-07-26T12:37:56.344Z,2.40
2022-07-26T12:40:31.814Z,1.10
2022-07-26T12:43:03.032Z,2.17
2022-07-26T12:45:37.716Z,1.70
2022-07-26T12:48:16.638Z,1.27
2022-07-26T12:50:48.579Z,2.20
2022-07-26T12:53:19.977Z,0.77
2022-07-26T12:55:48.972Z,1.63
2022-07-26T12:58:18.580Z,1.20
2022-07-26T13:00:47.397Z,1.10
2022-07-26T13:03:18.126Z,1.27
2022-07-26T13:05:48.469Z,0.80
2022-07-26T13:08:19.471Z,1.87
2022-07-26T13:10:49.089Z,0.87
2022-07-26T13:13:18.603Z,0.80
2022-07-26T13:15:52.134Z,1.30
2022-07-26T13:18:23.562Z,1.10
2022-07-26T13:20:56.336Z,1.50
2022-07-26T13:23:31.753Z,1.43
2022-07-26T13:26:04.191Z,0.73
2022-07-26T13:28:34.275Z,1.20
2022-07-26T13:31:04.184Z,0.93
2022-07-26T13:33:38.193Z,1.03
2022-07-26T13:36:09.317Z,0.80
2022-07-26T13:38:40.156Z,1.07
2022-07-26T13:41:13.382Z,0.90
2022-07-26T13:43:45.393Z,0.63
2022-07-26T13:46:13.570Z,0.77
2022-07-26T13:48:58.212Z,1.23
2022-07-26T13:51:49.430Z,0.67
2022-07-26T13:54:19.744Z,0.77
2022-07-26T13:56:50.148Z,1.47
2022-07-26T13:59:22.184Z,0.70
2022-07-26T14:01:53.670Z,0.90
2022-07-26T14:04:23.570Z,0.90
2022-07-26T14:06:55.211Z,0.70
2022-07-26T14:09:26.677Z,0.80
2022-07-26T14:11:58.510Z,0.60
2022-07-26T14:14:29.404Z,0.57
2022-07-26T14:17:01.171Z,0.70
2022-07-26T14:19:34.354Z,0.77
2022-07-26T14:22:04.173Z,1.07
2022-07-26T14:24:33.476Z,0.87
2022-07-26T14:27:04.419Z,0.60
2022-07-26T14:29:37.715Z,1.23
2022-07-26T14:32:08.939Z,0.60
2022-07-26T14:34:39.701Z,1.40
2022-07-26T14:37:43.090Z,0.50
2022-07-26T14:40:09.904Z,0.90
2022-07-26T14:42:40.512Z,0.70
2022-07-26T14:45:13.519Z,1.20
2022-07-26T14:47:47.144Z,0.97
2022-07-26T14:50:17.397Z,1.10
2022-07-26T14:58:24.896Z,1.53
2022-07-26T15:03:38.772Z,1.13
2022-07-26T15:06:10.239Z,1.03
2022-07-26T15:08:40.484Z,0.80
2022-07-26T15:11:11.765Z,0.60
2022-07-26T15:13:40.250Z,1.43
2022-07-26T15:16:11.737Z,1.43
2022-07-26T15:18:43.631Z,0.57
2022-07-26T15:21:18.818Z,1.40
2022-07-26T15:23:49.472Z,1.60
2022-07-26T15:26:21.712Z,0.53
2022-07-26T15:28:52.583Z,1.30
2022-07-26T15:31:21.319Z,0.70
2022-07-26T15:33:52.438Z,1.47
2022-07-26T15:36:22.706Z,0.90
2022-07-26T15:38:50.241Z,0.87
2022-07-26T15:41:21.774Z,1.03
2022-07-26T15:43:53.929Z,0.50
2022-07-26T15:46:25.361Z,0.70
2022-07-26T15:49:02.827Z,0.63
2022-07-26T15:51:38.502Z,1.47
2022-07-26T15:54:15.189Z,1.10
2022-07-26T15:56:45.757Z,1.53
2022-07-26T15:59:16.878Z,1.13
2022-07-26T16:01:49.103Z,1.83
2022-07-26T16:04:24.786Z,1.10
2022-07-26T16:06:55.384Z,0.97
2022-07-26T16:09:25.960Z,0.97
2022-07-26T16:11:54.538Z,1.40
2022-07-26T16:14:22.233Z,1.37
2022-07-26T16:16:51.393Z,1.73
2022-07-26T16:19:23.185Z,0.97
2022-07-26T16:21:51.962Z,1.00
2022-07-26T16:24:23.983Z,1.40
2022-07-26T16:26:58.347Z,1.43
2022-07-26T16:29:30.370Z,1.33
2022-07-26T16:32:02.317Z,1.20
2022-07-26T16:34:34.937Z,1.07
2022-07-26T16:37:04.108Z,1.30
2022-07-26T16:39:40.710Z,1.70
2022-07-26T16:42:13.710Z,1.70
2022-07-26T16:44:52.271Z,1.30
2022-07-26T16:47:24.649Z,0.97
2022-07-26T16:49:56.138Z,1.47
2022-07-26T16:52:28.722Z,1.30
2022-07-26T16:55:01.169Z,1.10
2022-07-26T16:57:30.831Z,1.17
2022-07-26T17:00:02.344Z,0.90
2022-07-26T17:02:31.640Z,1.10
2022-07-26T17:05:03.386Z,1.80
2022-07-26T17:07:35.702Z,1.77
2022-07-26T17:10:09.342Z,0.80
2022-07-26T17:12:38.699Z,1.03
2022-07-26T17:15:08.233Z,2.17
2022-07-26T17:17:38.386Z,1.70
2022-07-26T17:20:10.851Z,1.40
2022-07-26T17:22:43.790Z,2.47
2022-07-26T17:25:14.469Z,2.27
2022-07-26T17:27:46.757Z,1.43
2022-07-26T17:30:17.408Z,1.33
2022-07-26T17:32:48.183Z,1.73
2022-07-26T17:35:22.011Z,2.03
2022-07-26T17:37:51.005Z,1.83
2022-07-26T17:40:23.165Z,2.97
2022-07-26T17:42:56.456Z,2.50
2022-07-26T17:45:23.964Z,1.47
2022-07-26T17:47:52.697Z,2.47
2022-07-26T17:50:38.743Z,1.13
2022-07-26T17:53:10.666Z,1.43
2022-07-26T17:55:39.084Z,1.77
2022-07-26T17:58:11.081Z,1.33
2022-07-26T18:00:41.623Z,1.60
2022-07-26T18:03:19.110Z,1.33
2022-07-26T18:05:49.395Z,2.17
2022-07-26T18:08:23.784Z,1.77
2022-07-26T18:10:55.853Z,1.53
2022-07-26T18:13:31.797Z,2.33
2022-07-26T18:16:09.625Z,1.20
2022-07-26T18:18:41.891Z,1.80
2022-07-26T18:21:12.724Z,1.70
2022-07-26T18:24:06.598Z,2.67
2022-07-26T18:26:36.039Z,2.10
2022-07-26T18:29:07.913Z,1.23
2022-07-26T18:31:39.736Z,1.53
2022-07-26T18:34:13.252Z,3.10
2022-07-26T18:36:43.662Z,2.13
2022-07-26T18:39:16.295Z,1.53
2022-07-26T18:41:46.549Z,2.33
2022-07-26T18:44:19.122Z,2.17
2022-07-26T18:46:50.890Z,1.47
2022-07-26T18:49:21.978Z,2.27
2022-07-26T18:51:53.871Z,2.50
2022-07-26T18:54:27.556Z,2.17
2022-07-26T18:57:09.031Z,1.73
2022-07-26T18:59:45.751Z,1.47
2022-07-26T19:02:14.709Z,1.47
2022-07-26T19:04:44.166Z,1.10
2022-07-26T19:07:16.249Z,1.97
2022-07-26T19:09:52.602Z,1.53
2022-07-26T19:12:27.787Z,2.23
2022-07-26T19:15:02.325Z,1.83
2022-07-26T19:17:36.953Z,1.30
2022-07-26T19:20:11.459Z,2.40
2022-07-26T19:22:43.625Z,1.63
2022-07-26T19:25:15.849Z,1.53
2022-07-26T19:27:48.235Z,1.53
2022-07-26T19:33:03.859Z,1.80
2022-07-26T19:35:42.090Z,1.97
2022-07-26T19:38:16.687Z,1.90
2022-07-26T19:41:20.427Z,2.80
2022-07-26T19:43:50.385Z,2.80
2022-07-26T19:46:17.900Z,3.03
2022-07-26T19:48:47.576Z,1.73
2022-07-26T19:51:19.893Z,1.40
2022-07-26T19:53:51.056Z,1.40
2022-07-26T19:56:23.432Z,2.10
2022-07-26T19:58:52.989Z,2.20
2022-07-26T20:01:24.062Z,2.67
2022-07-26T20:03:52.795Z,2.93
2022-07-26T20:06:20.346Z,1.53
2022-07-26T20:09:01.043Z,2.00
2022-07-26T20:11:29.912Z,1.87
2022-07-26T20:14:04.887Z,1.37
2022-07-26T20:16:34.049Z,1.70
2022-07-26T20:19:02.716Z,2.10
2022-07-26T20:21:32.848Z,1.67
2022-07-26T20:24:04.882Z,1.63
2022-07-26T20:26:39.714Z,2.13
2022-07-26T20:29:14.582Z,0.77
2022-07-26T20:31:46.480Z,1.97
2022-07-26T20:34:20.643Z,1.73
2022-07-26T20:36:52.770Z,1.87
2022-07-26T20:39:24.037Z,2.77
2022-07-26T20:41:57.193Z,1.40
2022-07-26T20:44:28.470Z,2.07
2022-07-26T20:47:05.831Z,3.20
2022-07-26T20:49:36.366Z,1.93
2022-07-26T20:52:13.649Z,1.90
2022-07-26T20:54:42.088Z,1.80
2022-07-26T20:57:14.053Z,1.27
2022-07-26T20:59:44.552Z,2.00
2022-07-26T21:02:14.733Z,2.13
2022-07-26T21:04:47.111Z,2.17
2022-07-26T21:07:21.967Z,1.53
2022-07-26T21:10:03.076Z,1.43
2022-07-26T21:15:17.721Z,2.47
2022-07-26T21:17:45.799Z,1.70
2022-07-26T21:20:19.274Z,4.37
2022-07-26T21:22:51.742Z,2.37
2022-07-26T21:25:24.454Z,4.50
2022-07-26T21:27:55.324Z,7.87
2022-07-26T21:30:30.604Z,2.97
2022-07-26T21:33:01.519Z,2.73
2022-07-26T21:35:30.038Z,2.43
2022-07-26T21:38:00.609Z,3.73
2022-07-26T21:40:32.220Z,3.37
2022-07-26T21:43:03.998Z,2.13
2022-07-26T21:45:33.905Z,2.83
2022-07-26T21:48:06.666Z,2.70
2022-07-26T21:50:39.780Z,2.97
2022-07-26T21:53:11.431Z,4.97
2022-07-26T21:55:45.139Z,2.47
2022-07-26T21:58:16.933Z,1.80
2022-07-26T22:00:47.774Z,1.40
2022-07-26T22:03:20.085Z,1.40
2022-07-26T22:05:47.466Z,3.67
2022-07-26T22:08:20.259Z,2.47
2022-07-26T22:10:52.358Z,3.90
2022-07-26T22:13:19.864Z,1.93
2022-07-26T22:15:48.023Z,3.30
2022-07-26T22:18:19.463Z,2.00
2022-07-26T22:20:53.588Z,2.57
2022-07-26T22:23:32.242Z,2.23
2022-07-26T22:26:08.262Z,1.33
2022-07-26T22:28:36.076Z,2.57
2022-07-26T22:31:04.479Z,1.50
2022-07-26T22:33:33.945Z,2.00
2022-07-26T22:36:07.967Z,1.80
2022-07-26T22:38:38.914Z,2.00
2022-07-26T22:41:10.828Z,2.37
2022-07-26T22:46:27.575Z,4.60
2022-07-26T22:49:00.687Z,2.13
2022-07-26T22:51:30.954Z,1.50
2022-07-26T22:53:58.358Z,1.83
2022-07-26T22:56:30.272Z,2.37
2022-07-26T22:59:01.139Z,2.23
2022-07-26T23:01:33.287Z,1.80
2022-07-26T23:04:06.161Z,2.17
2022-07-26T23:06:34.398Z,2.30
2022-07-26T23:09:04.069Z,1.23
2022-07-26T23:11:39.000Z,2.30
2022-07-26T23:14:09.433Z,2.27
2022-07-26T23:16:44.512Z,2.17
2022-07-26T23:19:14.834Z,1.73
2022-07-26T23:21:53.420Z,2.87
2022-07-26T23:24:23.028Z,2.77
2022-07-26T23:26:53.675Z,1.80
2022-07-26T23:29:22.268Z,2.10
2022-07-26T23:31:52.949Z,3.90
2022-07-26T23:34:24.924Z,1.20
2022-07-26T23:36:56.557Z,1.43
2022-07-26T23:39:27.043Z,1.87
2022-07-26T23:41:59.031Z,1.50
2022-07-26T23:44:30.768Z,2.03
2022-07-26T23:47:03.178Z,2.03
2022-07-26T23:49:34.384Z,2.27
2022-07-26T23:52:06.326Z,1.90
2022-07-26T23:54:34.568Z,2.07
2022-07-26T23:57:05.460Z,1.83
2022-07-26T23:59:36.043Z,2.17
